sensor_id;sensor_type;location;lat;lon;timestamp;pressure;altitude;pressure_sealevel;temperature;humidity
29907;BME280;16776;50.958;10.994;2022-11-14T00:00:24;98855.69;;;2.58;100.00
29907;BME280;16776;50.958;10.994;2022-11-14T00:02:51;98829.28;;;2.44;100.00
29907;BME280;16776;50.958;10.994;2022-11-14T00:05:18;98855.63;;;2.55;100.00
29907;BME280;16776;50.958;10.994;2022-11-14T00:07:45;98859.03;;;2.54;100.00
29907;BME280;16776;50.958;10.994;2022-11-14T00:10:12;98848.84;;;2.51;100.00
29907;BME280;16776;50.958;10.994;2022-11-14T00:12:41;98846.28;;;2.50;100.00
29907;BME280;16776;50.958;10.994;2022-11-14T00:15:08;98841.16;;;2.45;100.00
29907;BME280;16776;50.958;10.994;2022-11-14T00:17:35;98827.53;;;2.36;100.00
29907;BME280;16776;50.958;10.994;2022-11-14T00:20:03;98825.78;;;2.32;100.00
29907;BME280;16776;50.958;10.994;2022-11-14T00:22:39;98839.34;;;2.34;100.00
29907;BME280;16776;50.958;10.994;2022-11-14T00:25:06;98839.34;;;2.32;100.00
29907;BME280;16776;50.958;10.994;2022-11-14T00:27:33;98830.00;;;2.28;100.00
29907;BME280;16776;50.958;10.994;2022-11-14T00:30:01;98837.59;;;2.27;100.00
29907;BME280;16776;50.958;10.994;2022-11-14T00:32:27;98828.22;;;2.21;100.00
29907;BME280;16776;50.958;10.994;2022-11-14T00:34:54;98827.31;;;2.17;100.00
29907;BME280;16776;50.958;10.994;2022-11-14T00:37:20;98833.25;;;2.15;100.00
29907;BME280;16776;50.958;10.994;2022-11-14T00:39:47;98828.13;;;2.12;100.00
29907;BME280;16776;50.958;10.994;2022-11-14T00:42:13;98828.13;;;2.10;100.00
29907;BME280;16776;50.958;10.994;2022-11-14T00:44:40;98831.47;;;2.08;100.00
29907;BME280;16776;50.958;10.994;2022-11-14T00:47:08;98823.03;;;2.09;100.00
29907;BME280;16776;50.958;10.994;2022-11-14T00:49:34;98817.03;;;2.05;100.00
29907;BME280;16776;50.958;10.994;2022-11-14T00:52:01;98815.34;;;2.06;100.00
29907;BME280;16776;50.958;10.994;2022-11-14T00:54:27;98809.44;;;2.04;100.00
29907;BME280;16776;50.958;10.994;2022-11-14T00:56:54;98807.72;;;2.03;100.00
29907;BME280;16776;50.958;10.994;2022-11-14T00:59:20;98811.06;;;2.00;100.00
29907;BME280;16776;50.958;10.994;2022-11-14T01:01:47;98805.97;;;1.99;100.00
29907;BME280;16776;50.958;10.994;2022-11-14T01:04:15;98800.88;;;1.99;100.00
29907;BME280;16776;50.958;10.994;2022-11-14T01:06:41;98798.34;;;1.96;100.00
29907;BME280;16776;50.958;10.994;2022-11-14T01:09:08;98794.09;;;1.95;100.00
29907;BME280;16776;50.958;10.994;2022-11-14T01:11:35;98784.75;;;1.91;100.00
29907;BME280;16776;50.958;10.994;2022-11-14T01:14:04;98793.28;;;2.00;100.00
29907;BME280;16776;50.958;10.994;2022-11-14T01:16:31;98781.44;;;1.99;100.00
29907;BME280;16776;50.958;10.994;2022-11-14T01:18:58;98782.28;;;2.00;100.00
29907;BME280;16776;50.958;10.994;2022-11-14T01:21:26;98781.44;;;2.01;100.00
29907;BME280;16776;50.958;10.994;2022-11-14T01:23:52;98781.44;;;1.99;100.00
29907;BME280;16776;50.958;10.994;2022-11-14T01:26:19;98777.19;;;1.98;100.00
29907;BME280;16776;50.958;10.994;2022-11-14T01:28:45;98773.78;;;1.98;100.00
29907;BME280;16776;50.958;10.994;2022-11-14T01:31:14;98773.81;;;2.01;100.00
29907;BME280;16776;50.958;10.994;2022-11-14T01:33:41;98762.78;;;1.99;100.00
29907;BME280;16776;50.958;10.994;2022-11-14T01:36:09;98772.13;;;2.00;100.00
29907;BME280;16776;50.958;10.994;2022-11-14T01:38:37;98767.09;;;2.03;100.00
29907;BME280;16776;50.958;10.994;2022-11-14T01:41:04;98767.09;;;2.03;100.00
29907;BME280;16776;50.958;10.994;2022-11-14T01:43:32;98769.63;;;2.04;100.00
29907;BME280;16776;50.958;10.994;2022-11-14T01:46:01;98766.25;;;2.05;100.00
29907;BME280;16776;50.958;10.994;2022-11-14T01:48:36;98756.13;;;2.11;100.00
29907;BME280;16776;50.958;10.994;2022-11-14T01:51:12;98745.94;;;2.07;100.00
29907;BME280;16776;50.958;10.994;2022-11-14T01:53:43;98750.19;;;2.11;100.00
29907;BME280;16776;50.958;10.994;2022-11-14T01:56:14;98744.28;;;2.12;100.00
29907;BME280;16776;50.958;10.994;2022-11-14T01:58:45;98742.59;;;2.11;100.00
29907;BME280;16776;50.958;10.994;2022-11-14T02:01:14;98733.25;;;2.07;100.00
29907;BME280;16776;50.958;10.994;2022-11-14T02:03:45;98740.03;;;2.08;100.00
29907;BME280;16776;50.958;10.994;2022-11-14T02:06:16;98732.41;;;2.08;100.00
29907;BME280;16776;50.958;10.994;2022-11-14T02:08:45;98731.53;;;2.06;100.00
29907;BME280;16776;50.958;10.994;2022-11-14T02:11:13;98728.97;;;2.01;100.00
29907;BME280;16776;50.958;10.994;2022-11-14T02:13:40;98725.56;;;2.01;100.00
29907;BME280;16776;50.958;10.994;2022-11-14T02:16:06;98721.31;;;1.98;100.00
29907;BME280;16776;50.958;10.994;2022-11-14T02:18:35;98723.84;;;1.98;100.00
29907;BME280;16776;50.958;10.994;2022-11-14T02:21:03;98707.63;;;1.85;100.00
29907;BME280;16776;50.958;10.994;2022-11-14T02:23:31;98727.19;;;1.94;100.00
29907;BME280;16776;50.958;10.994;2022-11-14T02:25:58;98724.63;;;1.93;100.00
29907;BME280;16776;50.958;10.994;2022-11-14T02:28:25;98730.56;;;1.92;100.00
29907;BME280;16776;50.958;10.994;2022-11-14T02:30:51;98726.34;;;1.91;100.00
29907;BME280;16776;50.958;10.994;2022-11-14T02:33:18;98729.72;;;1.90;100.00
29907;BME280;16776;50.958;10.994;2022-11-14T02:35:44;98724.59;;;1.88;100.00
29907;BME280;16776;50.958;10.994;2022-11-14T02:38:12;98722.06;;;1.88;100.00
29907;BME280;16776;50.958;10.994;2022-11-14T02:40:39;98722.88;;;1.85;100.00
29907;BME280;16776;50.958;10.994;2022-11-14T02:43:06;98713.56;;;1.83;100.00
29907;BME280;16776;50.958;10.994;2022-11-14T02:45:32;98716.06;;;1.81;100.00
29907;BME280;16776;50.958;10.994;2022-11-14T02:47:59;98714.34;;;1.79;100.00
29907;BME280;16776;50.958;10.994;2022-11-14T02:50:25;98693.09;;;1.68;100.00
29907;BME280;16776;50.958;10.994;2022-11-14T02:52:52;98710.94;;;1.75;100.00
29907;BME280;16776;50.958;10.994;2022-11-14T02:55:20;98693.94;;;1.68;100.00
29907;BME280;16776;50.958;10.994;2022-11-14T02:57:47;98694.84;;;1.72;100.00
29907;BME280;16776;50.958;10.994;2022-11-14T03:00:14;98700.75;;;1.71;100.00
29907;BME280;16776;50.958;10.994;2022-11-14T03:02:41;98688.81;;;1.62;100.00
29907;BME280;16776;50.958;10.994;2022-11-14T03:05:07;98698.16;;;1.66;100.00
29907;BME280;16776;50.958;10.994;2022-11-14T03:07:34;98694.75;;;1.66;100.00
29907;BME280;16776;50.958;10.994;2022-11-14T03:10:01;98695.63;;;1.65;100.00
29907;BME280;16776;50.958;10.994;2022-11-14T03:12:29;98690.53;;;1.66;100.00
29907;BME280;16776;50.958;10.994;2022-11-14T03:14:55;98689.69;;;1.66;100.00
29907;BME280;16776;50.958;10.994;2022-11-14T03:17:22;98679.53;;;1.66;100.00
29907;BME280;16776;50.958;10.994;2022-11-14T03:19:49;98674.41;;;1.58;100.00
29907;BME280;16776;50.958;10.994;2022-11-14T03:22:16;98676.16;;;1.65;100.00
29907;BME280;16776;50.958;10.994;2022-11-14T03:24:42;98688.00;;;1.65;100.00
29907;BME280;16776;50.958;10.994;2022-11-14T03:27:09;98675.28;;;1.63;100.00
29907;BME280;16776;50.958;10.994;2022-11-14T03:29:37;98673.59;;;1.64;100.00
29907;BME280;16776;50.958;10.994;2022-11-14T03:32:03;98671.91;;;1.63;100.00
29907;BME280;16776;50.958;10.994;2022-11-14T03:34:30;98680.38;;;1.63;100.00
29907;BME280;16776;50.958;10.994;2022-11-14T03:36:57;98675.28;;;1.63;100.00
29907;BME280;16776;50.958;10.994;2022-11-14T03:39:24;98669.34;;;1.63;100.00
29907;BME280;16776;50.958;10.994;2022-11-14T03:41:51;98668.50;;;1.62;100.00
29907;BME280;16776;50.958;10.994;2022-11-14T03:44:17;98666.78;;;1.60;100.00
29907;BME280;16776;50.958;10.994;2022-11-14T03:46:45;98671.03;;;1.61;100.00
29907;BME280;16776;50.958;10.994;2022-11-14T03:49:12;98668.44;;;1.56;100.00
29907;BME280;16776;50.958;10.994;2022-11-14T03:51:38;98670.97;;;1.55;100.00
29907;BME280;16776;50.958;10.994;2022-11-14T03:54:05;98670.91;;;1.50;100.00
29907;BME280;16776;50.958;10.994;2022-11-14T03:56:32;98672.56;;;1.47;100.00
29907;BME280;16776;50.958;10.994;2022-11-14T03:58:58;98670.84;;;1.42;100.00
29907;BME280;16776;50.958;10.994;2022-11-14T04:01:25;98663.22;;;1.39;100.00
29907;BME280;16776;50.958;10.994;2022-11-14T04:03:54;98661.47;;;1.37;100.00
29907;BME280;16776;50.958;10.994;2022-11-14T04:06:21;98658.84;;;1.29;100.00
29907;BME280;16776;50.958;10.994;2022-11-14T04:08:51;98654.63;;;1.27;100.00
29907;BME280;16776;50.958;10.994;2022-11-14T04:11:17;98656.16;;;1.16;100.00
29907;BME280;16776;50.958;10.994;2022-11-14T04:13:44;98645.09;;;1.09;100.00
29907;BME280;16776;50.958;10.994;2022-11-14T04:16:11;98635.72;;;1.02;100.00
29907;BME280;16776;50.958;10.994;2022-11-14T04:18:37;98635.66;;;0.94;100.00
29907;BME280;16776;50.958;10.994;2022-11-14T04:21:05;98632.19;;;0.89;100.00
29907;BME280;16776;50.958;10.994;2022-11-14T04:23:32;98632.09;;;0.82;100.00
29907;BME280;16776;50.958;10.994;2022-11-14T04:25:58;98626.94;;;0.77;100.00
29907;BME280;16776;50.958;10.994;2022-11-14T04:28:25;98625.22;;;0.73;100.00
29907;BME280;16776;50.958;10.994;2022-11-14T04:30:52;98631.09;;;0.69;100.00
29907;BME280;16776;50.958;10.994;2022-11-14T04:33:18;98634.41;;;0.67;100.00
29907;BME280;16776;50.958;10.994;2022-11-14T04:35:45;98631.03;;;0.66;100.00
29907;BME280;16776;50.958;10.994;2022-11-14T04:38:13;98624.25;;;0.65;100.00
29907;BME280;16776;50.958;10.994;2022-11-14T04:40:39;98623.41;;;0.63;100.00
29907;BME280;16776;50.958;10.994;2022-11-14T04:43:06;98617.47;;;0.61;100.00
29907;BME280;16776;50.958;10.994;2022-11-14T04:45:32;98617.44;;;0.59;100.00
29907;BME280;16776;50.958;10.994;2022-11-14T04:47:59;98617.41;;;0.58;100.00
29907;BME280;16776;50.958;10.994;2022-11-14T04:50:25;98613.16;;;0.57;100.00
29907;BME280;16776;50.958;10.994;2022-11-14T04:52:52;98603.88;;;0.56;100.00
29907;BME280;16776;50.958;10.994;2022-11-14T04:55:20;98597.97;;;0.57;100.00
29907;BME280;16776;50.958;10.994;2022-11-14T04:57:47;98591.22;;;0.56;100.00
29907;BME280;16776;50.958;10.994;2022-11-14T05:00:14;98593.75;;;0.56;100.00
29907;BME280;16776;50.958;10.994;2022-11-14T05:02:41;98596.28;;;0.57;100.00
29907;BME280;16776;50.958;10.994;2022-11-14T05:05:08;98594.63;;;0.59;100.00
29907;BME280;16776;50.958;10.994;2022-11-14T05:07:34;98587.88;;;0.60;100.00
29907;BME280;16776;50.958;10.994;2022-11-14T05:10:03;98583.69;;;0.62;100.00
29907;BME280;16776;50.958;10.994;2022-11-14T05:12:32;98576.13;;;0.67;100.00
29907;BME280;16776;50.958;10.994;2022-11-14T05:14:58;98573.56;;;0.65;100.00
29907;BME280;16776;50.958;10.994;2022-11-14T05:17:26;98577.84;;;0.68;100.00
29907;BME280;16776;50.958;10.994;2022-11-14T05:19:53;98597.28;;;0.69;100.00
29907;BME280;16776;50.958;10.994;2022-11-14T05:22:19;98591.38;;;0.68;100.00
29907;BME280;16776;50.958;10.994;2022-11-14T05:24:46;98589.66;;;0.67;100.00
29907;BME280;16776;50.958;10.994;2022-11-14T05:27:12;98581.19;;;0.65;100.00
29907;BME280;16776;50.958;10.994;2022-11-14T05:29:40;98577.78;;;0.64;100.00
29907;BME280;16776;50.958;10.994;2022-11-14T05:32:07;98577.78;;;0.61;100.00
29907;BME280;16776;50.958;10.994;2022-11-14T05:34:33;98577.94;;;0.77;100.00
29907;BME280;16776;50.958;10.994;2022-11-14T05:37:00;98551.88;;;0.87;100.00
29907;BME280;16776;50.958;10.994;2022-11-14T05:39:28;98579.34;;;1.26;100.00
29907;BME280;16776;50.958;10.994;2022-11-14T05:41:54;98576.94;;;1.41;100.00
29907;BME280;16776;50.958;10.994;2022-11-14T05:44:21;98568.59;;;1.51;100.00
29907;BME280;16776;50.958;10.994;2022-11-14T05:46:49;98574.56;;;1.58;100.00
29907;BME280;16776;50.958;10.994;2022-11-14T05:49:15;98568.63;;;1.57;100.00
29907;BME280;16776;50.958;10.994;2022-11-14T05:51:42;98564.38;;;1.56;100.00
29907;BME280;16776;50.958;10.994;2022-11-14T05:54:08;98558.44;;;1.54;100.00
29907;BME280;16776;50.958;10.994;2022-11-14T05:56:35;98561.81;;;1.50;100.00
29907;BME280;16776;50.958;10.994;2022-11-14T05:59:02;98560.91;;;1.45;100.00
29907;BME280;16776;50.958;10.994;2022-11-14T06:01:28;98558.31;;;1.40;100.00
29907;BME280;16776;50.958;10.994;2022-11-14T06:03:56;98556.59;;;1.36;100.00
29907;BME280;16776;50.958;10.994;2022-11-14T06:06:23;98559.94;;;1.31;100.00
29907;BME280;16776;50.958;10.994;2022-11-14T06:08:49;98553.97;;;1.26;100.00
29907;BME280;16776;50.958;10.994;2022-11-14T06:11:18;98551.44;;;1.24;100.00
29907;BME280;16776;50.958;10.994;2022-11-14T06:13:46;98559.84;;;1.19;100.00
29907;BME280;16776;50.958;10.994;2022-11-14T06:16:14;98566.56;;;1.17;100.00
29907;BME280;16776;50.958;10.994;2022-11-14T06:18:41;98568.22;;;1.12;100.00
29907;BME280;16776;50.958;10.994;2022-11-14T06:21:11;98561.44;;;1.11;100.00
29907;BME280;16776;50.958;10.994;2022-11-14T06:23:39;98569.81;;;1.03;100.00
29907;BME280;16776;50.958;10.994;2022-11-14T06:26:07;98564.72;;;1.00;100.00
29907;BME280;16776;50.958;10.994;2022-11-14T06:28:37;98559.59;;;0.94;100.00
29907;BME280;16776;50.958;10.994;2022-11-14T06:31:04;98560.38;;;0.90;100.00
29907;BME280;16776;50.958;10.994;2022-11-14T06:33:33;98566.28;;;0.88;100.00
29907;BME280;16776;50.958;10.994;2022-11-14T06:36:01;98561.13;;;0.82;100.00
29907;BME280;16776;50.958;10.994;2022-11-14T06:38:31;98564.44;;;0.79;100.00
29907;BME280;16776;50.958;10.994;2022-11-14T06:41:02;98569.47;;;0.76;100.00
29907;BME280;16776;50.958;10.994;2022-11-14T06:43:31;98576.19;;;0.71;100.00
29907;BME280;16776;50.958;10.994;2022-11-14T06:45:58;98582.03;;;0.65;100.00
29907;BME280;16776;50.958;10.994;2022-11-14T06:48:25;98583.69;;;0.62;100.00
29907;BME280;16776;50.958;10.994;2022-11-14T06:50:51;98587.84;;;0.58;100.00
29907;BME280;16776;50.958;10.994;2022-11-14T06:53:18;98581.91;;;0.55;99.75
29907;BME280;16776;50.958;10.994;2022-11-14T06:55:53;98586.16;;;0.56;99.98
29907;BME280;16776;50.958;10.994;2022-11-14T06:58:20;98578.41;;;0.45;100.00
29907;BME280;16776;50.958;10.994;2022-11-14T07:00:46;98591.06;;;0.44;100.00
29907;BME280;16776;50.958;10.994;2022-11-14T07:03:13;98587.63;;;0.40;100.00
29907;BME280;16776;50.958;10.994;2022-11-14T07:05:39;98582.53;;;0.39;100.00
29907;BME280;16776;50.958;10.994;2022-11-14T07:08:06;98585.06;;;0.37;100.00
29907;BME280;16776;50.958;10.994;2022-11-14T07:10:33;98579.97;;;0.36;100.00
29907;BME280;16776;50.958;10.994;2022-11-14T07:13:01;98579.16;;;0.37;100.00
29907;BME280;16776;50.958;10.994;2022-11-14T07:15:27;98579.16;;;0.37;100.00
29907;BME280;16776;50.958;10.994;2022-11-14T07:17:54;98580.00;;;0.39;100.00
29907;BME280;16776;50.958;10.994;2022-11-14T07:20:20;98581.72;;;0.41;100.00
29907;BME280;16776;50.958;10.994;2022-11-14T07:22:47;98584.31;;;0.46;100.00
29907;BME280;16776;50.958;10.994;2022-11-14T07:25:14;98589.44;;;0.49;100.00
29907;BME280;16776;50.958;10.994;2022-11-14T07:27:40;98576.81;;;0.53;100.00
29907;BME280;16776;50.958;10.994;2022-11-14T07:30:09;98579.44;;;0.61;100.00
29907;BME280;16776;50.958;10.994;2022-11-14T07:32:36;98584.53;;;0.62;100.00
29907;BME280;16776;50.958;10.994;2022-11-14T07:35:03;98585.44;;;0.68;100.00
29907;BME280;16776;50.958;10.994;2022-11-14T07:37:30;98584.59;;;0.70;100.00
29907;BME280;16776;50.958;10.994;2022-11-14T07:39:56;98583.84;;;0.76;100.00
29907;BME280;16776;50.958;10.994;2022-11-14T07:42:23;98582.22;;;0.81;100.00
29907;BME280;16776;50.958;10.994;2022-11-14T07:44:49;98584.81;;;0.85;100.00
29907;BME280;16776;50.958;10.994;2022-11-14T07:47:17;98591.66;;;0.92;100.00
29907;BME280;16776;50.958;10.994;2022-11-14T07:49:44;98591.72;;;0.97;100.00
29907;BME280;16776;50.958;10.994;2022-11-14T07:52:10;98591.78;;;1.01;100.00
29907;BME280;16776;50.958;10.994;2022-11-14T07:54:37;98594.38;;;1.08;100.00
29907;BME280;16776;50.958;10.994;2022-11-14T07:57:03;98597.00;;;1.14;100.00
29907;BME280;16776;50.958;10.994;2022-11-14T07:59:30;98595.34;;;1.19;100.00
29907;BME280;16776;50.958;10.994;2022-11-14T08:01:56;98590.31;;;1.23;100.00
29907;BME280;16776;50.958;10.994;2022-11-14T08:04:24;98594.59;;;1.30;100.00
29907;BME280;16776;50.958;10.994;2022-11-14T08:06:51;98582.78;;;1.31;100.00
29907;BME280;16776;50.958;10.994;2022-11-14T08:09:18;98590.41;;;1.35;100.00
29907;BME280;16776;50.958;10.994;2022-11-14T08:11:44;98579.47;;;1.39;100.00
29907;BME280;16776;50.958;10.994;2022-11-14T08:14:14;98571.81;;;1.36;100.00
29907;BME280;16776;50.958;10.994;2022-11-14T08:16:40;98586.31;;;1.50;100.00
29907;BME280;16776;50.958;10.994;2022-11-14T08:19:07;98583.84;;;1.56;100.00
29907;BME280;16776;50.958;10.994;2022-11-14T08:21:35;98576.28;;;1.62;100.00
29907;BME280;16776;50.958;10.994;2022-11-14T08:24:01;98562.75;;;1.66;100.00
29907;BME280;16776;50.958;10.994;2022-11-14T08:26:28;98575.50;;;1.70;100.00
29907;BME280;16776;50.958;10.994;2022-11-14T08:28:55;98564.53;;;1.74;100.00
29907;BME280;16776;50.958;10.994;2022-11-14T08:31:21;98558.66;;;1.78;100.00
29907;BME280;16776;50.958;10.994;2022-11-14T08:33:50;98553.63;;;1.84;100.00
29907;BME280;16776;50.958;10.994;2022-11-14T08:36:16;98553.63;;;1.88;100.00
29907;BME280;16776;50.958;10.994;2022-11-14T08:38:44;98542.63;;;1.92;100.00
29907;BME280;16776;50.958;10.994;2022-11-14T08:41:11;98539.28;;;1.94;100.00
29907;BME280;16776;50.958;10.994;2022-11-14T08:43:37;98547.75;;;1.96;100.00
29907;BME280;16776;50.958;10.994;2022-11-14T08:46:04;98531.66;;;1.91;100.00
29907;BME280;16776;50.958;10.994;2022-11-14T08:48:31;98552.03;;;2.03;100.00
29907;BME280;16776;50.958;10.994;2022-11-14T08:51:01;98521.53;;;1.97;100.00
29907;BME280;16776;50.958;10.994;2022-11-14T08:53:28;98555.44;;;2.08;100.00
29907;BME280;16776;50.958;10.994;2022-11-14T08:55:56;98550.38;;;2.13;100.00
29907;BME280;16776;50.958;10.994;2022-11-14T08:58:23;98549.56;;;2.14;100.00
29907;BME280;16776;50.958;10.994;2022-11-14T09:00:49;98557.19;;;2.18;100.00
29907;BME280;16776;50.958;10.994;2022-11-14T09:03:16;98541.16;;;2.22;100.00
29907;BME280;16776;50.958;10.994;2022-11-14T09:05:50;98548.78;;;2.27;100.00
29907;BME280;16776;50.958;10.994;2022-11-14T09:08:16;98542.03;;;2.32;100.00
29907;BME280;16776;50.958;10.994;2022-11-14T09:10:43;98550.53;;;2.39;100.00
29907;BME280;16776;50.958;10.994;2022-11-14T09:13:11;98547.19;;;2.47;100.00
29907;BME280;16776;50.958;10.994;2022-11-14T09:15:37;98546.38;;;2.53;100.00
29907;BME280;16776;50.958;10.994;2022-11-14T09:18:04;98540.47;;;2.60;100.00
29907;BME280;16776;50.958;10.994;2022-11-14T09:20:31;98536.25;;;2.67;100.00
29907;BME280;16776;50.958;10.994;2022-11-14T09:22:58;98534.56;;;2.73;100.00
29907;BME280;16776;50.958;10.994;2022-11-14T09:25:24;98537.13;;;2.82;100.00
29907;BME280;16776;50.958;10.994;2022-11-14T09:27:52;98527.81;;;2.89;100.00
29907;BME280;16776;50.958;10.994;2022-11-14T09:30:20;98521.91;;;2.99;100.00
29907;BME280;16776;50.958;10.994;2022-11-14T09:32:47;98516.81;;;3.06;100.00
29907;BME280;16776;50.958;10.994;2022-11-14T09:35:13;98518.53;;;3.15;100.00
29907;BME280;16776;50.958;10.994;2022-11-14T09:37:40;98523.66;;;3.24;100.00
29907;BME280;16776;50.958;10.994;2022-11-14T09:40:10;98521.13;;;3.35;100.00
29907;BME280;16776;50.958;10.994;2022-11-14T09:42:53;98520.31;;;3.50;100.00
29907;BME280;16776;50.958;10.994;2022-11-14T09:45:25;98521.97;;;3.54;100.00
29907;BME280;16776;50.958;10.994;2022-11-14T09:47:57;98522.81;;;3.65;100.00
29907;BME280;16776;50.958;10.994;2022-11-14T09:50:31;98506.72;;;3.69;100.00
29907;BME280;16776;50.958;10.994;2022-11-14T09:53:03;98517.72;;;3.89;100.00
29907;BME280;16776;50.958;10.994;2022-11-14T09:55:37;98522.78;;;4.00;100.00
29907;BME280;16776;50.958;10.994;2022-11-14T09:58:05;98522.75;;;4.15;100.00
29907;BME280;16776;50.958;10.994;2022-11-14T10:00:46;98516.75;;;4.33;100.00
29907;BME280;16776;50.958;10.994;2022-11-14T10:03:20;98504.81;;;4.47;100.00
29907;BME280;16776;50.958;10.994;2022-11-14T10:06:01;98503.84;;;4.64;100.00
29907;BME280;16776;50.958;10.994;2022-11-14T10:08:48;98524.16;;;4.81;100.00
29907;BME280;16776;50.958;10.994;2022-11-14T10:11:22;98547.09;;;4.90;100.00
29907;BME280;16776;50.958;10.994;2022-11-14T10:14:05;98546.22;;;4.97;100.00
29907;BME280;16776;50.958;10.994;2022-11-14T10:16:40;98530.88;;;4.99;100.00
29907;BME280;16776;50.958;10.994;2022-11-14T10:19:17;98533.41;;;5.03;100.00
29907;BME280;16776;50.958;10.994;2022-11-14T10:22:01;98530.88;;;5.03;100.00
29907;BME280;16776;50.958;10.994;2022-11-14T10:27:35;98535.97;;;4.99;100.00
29907;BME280;16776;50.958;10.994;2022-11-14T10:30:11;98528.31;;;5.00;100.00
29907;BME280;16776;50.958;10.994;2022-11-14T10:33:04;98521.50;;;5.01;100.00
29907;BME280;16776;50.958;10.994;2022-11-14T10:35:39;98502.84;;;4.94;100.00
29907;BME280;16776;50.958;10.994;2022-11-14T10:38:12;98507.09;;;4.98;100.00
29907;BME280;16776;50.958;10.994;2022-11-14T10:40:44;98496.84;;;5.00;100.00
29907;BME280;16776;50.958;10.994;2022-11-14T10:43:19;98496.78;;;5.07;100.00
29907;BME280;16776;50.958;10.994;2022-11-14T10:45:51;98498.44;;;5.12;100.00
29907;BME280;16776;50.958;10.994;2022-11-14T10:48:27;98492.50;;;5.13;100.00
29907;BME280;16776;50.958;10.994;2022-11-14T10:50:57;98492.50;;;5.16;100.00
29907;BME280;16776;50.958;10.994;2022-11-14T10:53:28;98487.38;;;5.13;100.00
29907;BME280;16776;50.958;10.994;2022-11-14T10:55:59;98501.03;;;5.18;100.00
29907;BME280;16776;50.958;10.994;2022-11-14T10:58:26;98500.13;;;5.20;100.00
29907;BME280;16776;50.958;10.994;2022-11-14T11:00:52;98490.78;;;5.21;100.00
29907;BME280;16776;50.958;10.994;2022-11-14T11:03:19;98503.53;;;5.19;100.00
29907;BME280;16776;50.958;10.994;2022-11-14T11:05:48;98506.94;;;5.23;100.00
29907;BME280;16776;50.958;10.994;2022-11-14T11:08:19;98497.59;;;5.16;100.00
29907;BME280;16776;50.958;10.994;2022-11-14T11:11:06;98508.66;;;5.22;100.00
29907;BME280;16776;50.958;10.994;2022-11-14T11:13:56;98487.31;;;5.26;100.00
29907;BME280;16776;50.958;10.994;2022-11-14T11:16:25;98488.13;;;5.33;100.00
29907;BME280;16776;50.958;10.994;2022-11-14T11:18:52;98494.03;;;5.38;100.00
29907;BME280;16776;50.958;10.994;2022-11-14T11:21:22;98494.84;;;5.46;100.00
29907;BME280;16776;50.958;10.994;2022-11-14T11:23:50;98497.38;;;5.49;100.00
29907;BME280;16776;50.958;10.994;2022-11-14T11:26:20;98478.66;;;5.45;100.00
29907;BME280;16776;50.958;10.994;2022-11-14T11:29:05;98497.22;;;5.67;100.00
29907;BME280;16776;50.958;10.994;2022-11-14T11:31:50;98490.28;;;5.75;100.00
29907;BME280;16776;50.958;10.994;2022-11-14T11:34:22;98495.38;;;5.80;100.00
29907;BME280;16776;50.958;10.994;2022-11-14T11:36:56;98490.16;;;5.91;100.00
29907;BME280;16776;50.958;10.994;2022-11-14T11:39:27;98485.81;;;5.99;100.00
29907;BME280;16776;50.958;10.994;2022-11-14T11:41:57;98487.41;;;6.09;100.00
29907;BME280;16776;50.958;10.994;2022-11-14T11:44:33;98492.38;;;6.22;100.00
29907;BME280;16776;50.958;10.994;2022-11-14T11:47:02;98490.56;;;6.31;100.00
29907;BME280;16776;50.958;10.994;2022-11-14T11:49:37;98486.09;;;6.48;100.00
29907;BME280;16776;50.958;10.994;2022-11-14T11:52:12;98473.97;;;6.60;100.00
29907;BME280;16776;50.958;10.994;2022-11-14T11:54:56;98478.94;;;6.77;100.00
29907;BME280;16776;50.958;10.994;2022-11-14T11:57:29;98467.69;;;6.87;100.00
29907;BME280;16776;50.958;10.994;2022-11-14T12:00:03;98471.69;;;7.05;100.00
29907;BME280;16776;50.958;10.994;2022-11-14T12:02:31;98462.09;;;7.16;100.00
29907;BME280;16776;50.958;10.994;2022-11-14T12:04:58;98463.47;;;7.37;100.00
29907;BME280;16776;50.958;10.994;2022-11-14T12:07:36;98452.97;;;7.54;100.00
29907;BME280;16776;50.958;10.994;2022-11-14T12:10:10;98467.09;;;7.76;100.00
29907;BME280;16776;50.958;10.994;2022-11-14T12:15:42;98459.56;;;8.14;100.00
29907;BME280;16776;50.958;10.994;2022-11-14T12:18:28;98462.59;;;8.33;100.00
29907;BME280;16776;50.958;10.994;2022-11-14T12:21:11;98456.31;;;8.48;100.00
29907;BME280;16776;50.958;10.994;2022-11-14T12:26:46;98445.38;;;8.78;100.00
29907;BME280;16776;50.958;10.994;2022-11-14T12:29:31;98448.50;;;8.91;100.00
29907;BME280;16776;50.958;10.994;2022-11-14T12:32:04;98440.56;;;9.01;100.00
29907;BME280;16776;50.958;10.994;2022-11-14T12:34:36;98451.47;;;9.11;100.00
29907;BME280;16776;50.958;10.994;2022-11-14T12:37:07;98446.03;;;9.23;100.00
29907;BME280;16776;50.958;10.994;2022-11-14T12:39:36;98443.25;;;9.32;100.00
29907;BME280;16776;50.958;10.994;2022-11-14T12:42:04;98447.28;;;9.42;100.00
29907;BME280;16776;50.958;10.994;2022-11-14T12:44:36;98445.28;;;9.54;100.00
29907;BME280;16776;50.958;10.994;2022-11-14T12:47:15;98440.94;;;9.57;100.00
29907;BME280;16776;50.958;10.994;2022-11-14T12:52:49;98443.88;;;9.76;100.00
29907;BME280;16776;50.958;10.994;2022-11-14T12:55:53;98439.97;;;9.92;100.00
29907;BME280;16776;50.958;10.994;2022-11-14T13:01:23;98433.69;;;10.04;100.00
29907;BME280;16776;50.958;10.994;2022-11-14T13:04:04;98430.94;;;10.10;100.00
29907;BME280;16776;50.958;10.994;2022-11-14T13:06:41;98426.56;;;10.12;100.00
29907;BME280;16776;50.958;10.994;2022-11-14T13:09:31;98424.59;;;10.21;100.00
29907;BME280;16776;50.958;10.994;2022-11-14T13:12:17;98423.56;;;10.27;100.00
29907;BME280;16776;50.958;10.994;2022-11-14T13:15:20;98421.81;;;10.29;100.00